Terminal Aerodrome Forecast
Issued by NWS Jacksonville, FL

Home | Current Version | Previous Version | Text Only | Print | Product List | Glossary On
Versions: 1 2 3 4 5 6 7 8 9 10 11 12 13 14 15 16 17 18 19 20 21 22 23 24 25 26 27 28 29 30 31
000
FTUS42 KJAX 030157 AAA
TAFGNV
TAF AMD
KGNV 030157Z 0302/0324 VRB03KT P6SM -SHRA SCT025 OVC090
     FM030400 00000KT P6SM OVC250
     FM030800 00000KT 3SM BR BKN250
     FM031300 18003KT P6SM SCT030 BKN250
     FM032100 10006KT P6SM VCTS BKN050CB=

USA.gov is the U.S. government's official web portal to all federal, state and local government web resources and services.